sensor_id;sensor_type;location;lat;lon;timestamp;P1;durP1;ratioP1;P2;durP2;ratioP2
27223;SDS011;14965;50.660;13.226;2024-03-02T00:00:49;99.93;;;49.08;;
27223;SDS011;14965;50.660;13.226;2024-03-02T00:03:15;118.13;;;53.97;;
27223;SDS011;14965;50.660;13.226;2024-03-02T00:05:42;110.97;;;53.90;;
27223;SDS011;14965;50.660;13.226;2024-03-02T00:08:09;119.13;;;53.47;;
27223;SDS011;14965;50.660;13.226;2024-03-02T00:10:36;113.47;;;53.10;;
27223;SDS011;14965;50.660;13.226;2024-03-02T00:13:03;126.65;;;54.45;;
27223;SDS011;14965;50.660;13.226;2024-03-02T00:15:35;113.95;;;52.08;;
27223;SDS011;14965;50.660;13.226;2024-03-02T00:18:07;111.75;;;50.97;;
27223;SDS011;14965;50.660;13.226;2024-03-02T00:23:03;111.55;;;50.90;;
27223;SDS011;14965;50.660;13.226;2024-03-02T00:25:36;110.33;;;52.83;;
27223;SDS011;14965;50.660;13.226;2024-03-02T00:28:05;123.47;;;55.67;;
27223;SDS011;14965;50.660;13.226;2024-03-02T00:30:43;119.47;;;54.05;;
27223;SDS011;14965;50.660;13.226;2024-03-02T00:33:20;110.18;;;52.30;;
27223;SDS011;14965;50.660;13.226;2024-03-02T00:35:47;140.02;;;55.22;;
27223;SDS011;14965;50.660;13.226;2024-03-02T00:38:13;113.50;;;53.17;;
27223;SDS011;14965;50.660;13.226;2024-03-02T00:40:41;118.55;;;53.80;;
27223;SDS011;14965;50.660;13.226;2024-03-02T00:43:09;102.20;;;50.35;;
27223;SDS011;14965;50.660;13.226;2024-03-02T00:46:09;126.60;;;55.88;;
27223;SDS011;14965;50.660;13.226;2024-03-02T00:48:50;110.45;;;52.13;;
27223;SDS011;14965;50.660;13.226;2024-03-02T00:51:19;116.57;;;52.78;;
27223;SDS011;14965;50.660;13.226;2024-03-02T00:53:46;119.75;;;54.25;;
27223;SDS011;14965;50.660;13.226;2024-03-02T00:56:13;112.38;;;52.38;;
27223;SDS011;14965;50.660;13.226;2024-03-02T00:58:40;107.82;;;51.03;;
27223;SDS011;14965;50.660;13.226;2024-03-02T01:01:05;113.43;;;50.88;;
27223;SDS011;14965;50.660;13.226;2024-03-02T01:03:31;102.63;;;45.55;;
27223;SDS011;14965;50.660;13.226;2024-03-02T01:05:58;97.30;;;42.05;;
27223;SDS011;14965;50.660;13.226;2024-03-02T01:08:24;95.85;;;41.95;;
27223;SDS011;14965;50.660;13.226;2024-03-02T01:10:50;95.22;;;42.80;;
27223;SDS011;14965;50.660;13.226;2024-03-02T01:13:17;102.18;;;41.90;;
27223;SDS011;14965;50.660;13.226;2024-03-02T01:15:43;113.72;;;46.45;;
27223;SDS011;14965;50.660;13.226;2024-03-02T01:18:09;112.78;;;45.95;;
27223;SDS011;14965;50.660;13.226;2024-03-02T01:20:35;115.20;;;45.47;;
27223;SDS011;14965;50.660;13.226;2024-03-02T01:23:01;118.53;;;47.60;;
27223;SDS011;14965;50.660;13.226;2024-03-02T01:25:27;118.00;;;46.97;;
27223;SDS011;14965;50.660;13.226;2024-03-02T01:27:53;115.25;;;44.33;;
27223;SDS011;14965;50.660;13.226;2024-03-02T01:30:20;115.97;;;43.35;;
27223;SDS011;14965;50.660;13.226;2024-03-02T01:32:46;113.43;;;43.65;;
27223;SDS011;14965;50.660;13.226;2024-03-02T01:35:12;116.60;;;43.30;;
27223;SDS011;14965;50.660;13.226;2024-03-02T01:37:38;124.28;;;46.60;;
27223;SDS011;14965;50.660;13.226;2024-03-02T01:40:05;124.63;;;47.05;;
27223;SDS011;14965;50.660;13.226;2024-03-02T01:42:32;116.65;;;44.03;;
27223;SDS011;14965;50.660;13.226;2024-03-02T01:44:58;103.40;;;39.78;;
27223;SDS011;14965;50.660;13.226;2024-03-02T01:47:25;111.28;;;43.20;;
27223;SDS011;14965;50.660;13.226;2024-03-02T01:49:51;104.55;;;42.78;;
27223;SDS011;14965;50.660;13.226;2024-03-02T01:52:17;113.50;;;42.53;;
27223;SDS011;14965;50.660;13.226;2024-03-02T01:54:42;114.72;;;43.13;;
27223;SDS011;14965;50.660;13.226;2024-03-02T01:57:08;111.22;;;42.72;;
27223;SDS011;14965;50.660;13.226;2024-03-02T01:59:35;108.50;;;42.10;;
27223;SDS011;14965;50.660;13.226;2024-03-02T02:02:00;112.25;;;42.55;;
27223;SDS011;14965;50.660;13.226;2024-03-02T02:04:28;126.00;;;44.17;;
27223;SDS011;14965;50.660;13.226;2024-03-02T02:06:53;117.68;;;43.50;;
27223;SDS011;14965;50.660;13.226;2024-03-02T02:09:19;97.20;;;39.70;;
27223;SDS011;14965;50.660;13.226;2024-03-02T02:11:45;94.30;;;38.88;;
27223;SDS011;14965;50.660;13.226;2024-03-02T02:14:11;111.13;;;43.00;;
27223;SDS011;14965;50.660;13.226;2024-03-02T02:16:37;107.00;;;41.55;;
27223;SDS011;14965;50.660;13.226;2024-03-02T02:19:03;100.32;;;38.53;;
27223;SDS011;14965;50.660;13.226;2024-03-02T02:21:31;97.07;;;39.20;;
27223;SDS011;14965;50.660;13.226;2024-03-02T02:23:56;112.15;;;41.08;;
27223;SDS011;14965;50.660;13.226;2024-03-02T02:26:22;101.88;;;40.10;;
27223;SDS011;14965;50.660;13.226;2024-03-02T02:28:48;78.35;;;34.33;;
27223;SDS011;14965;50.660;13.226;2024-03-02T02:31:14;102.65;;;39.05;;
27223;SDS011;14965;50.660;13.226;2024-03-02T02:33:40;88.13;;;35.20;;
27223;SDS011;14965;50.660;13.226;2024-03-02T02:36:07;81.53;;;36.17;;
27223;SDS011;14965;50.660;13.226;2024-03-02T02:38:35;78.60;;;33.75;;
27223;SDS011;14965;50.660;13.226;2024-03-02T02:41:05;76.25;;;31.45;;
27223;SDS011;14965;50.660;13.226;2024-03-02T02:43:32;67.45;;;30.98;;
27223;SDS011;14965;50.660;13.226;2024-03-02T02:45:58;67.88;;;30.63;;
27223;SDS011;14965;50.660;13.226;2024-03-02T02:48:23;63.53;;;29.20;;
27223;SDS011;14965;50.660;13.226;2024-03-02T02:50:49;61.40;;;28.55;;
27223;SDS011;14965;50.660;13.226;2024-03-02T02:53:15;56.97;;;27.63;;
27223;SDS011;14965;50.660;13.226;2024-03-02T02:55:42;53.65;;;25.50;;
27223;SDS011;14965;50.660;13.226;2024-03-02T02:58:08;54.53;;;26.10;;
27223;SDS011;14965;50.660;13.226;2024-03-02T03:00:34;49.42;;;23.80;;
27223;SDS011;14965;50.660;13.226;2024-03-02T03:03:00;49.80;;;25.30;;
27223;SDS011;14965;50.660;13.226;2024-03-02T03:05:26;53.40;;;26.58;;
27223;SDS011;14965;50.660;13.226;2024-03-02T03:07:52;52.28;;;26.48;;
27223;SDS011;14965;50.660;13.226;2024-03-02T03:10:18;46.25;;;24.05;;
27223;SDS011;14965;50.660;13.226;2024-03-02T03:12:45;49.53;;;24.55;;
27223;SDS011;14965;50.660;13.226;2024-03-02T03:15:11;48.40;;;25.20;;
27223;SDS011;14965;50.660;13.226;2024-03-02T03:17:37;48.50;;;25.45;;
27223;SDS011;14965;50.660;13.226;2024-03-02T03:20:03;40.80;;;22.92;;
27223;SDS011;14965;50.660;13.226;2024-03-02T03:22:31;43.20;;;22.40;;
27223;SDS011;14965;50.660;13.226;2024-03-02T03:24:57;51.47;;;26.30;;
27223;SDS011;14965;50.660;13.226;2024-03-02T03:27:22;44.28;;;22.90;;
27223;SDS011;14965;50.660;13.226;2024-03-02T03:29:50;39.55;;;23.30;;
27223;SDS011;14965;50.660;13.226;2024-03-02T03:32:15;41.25;;;21.27;;
27223;SDS011;14965;50.660;13.226;2024-03-02T03:34:41;40.28;;;21.60;;
27223;SDS011;14965;50.660;13.226;2024-03-02T03:37:07;44.33;;;22.77;;
27223;SDS011;14965;50.660;13.226;2024-03-02T03:39:33;40.67;;;22.85;;
27223;SDS011;14965;50.660;13.226;2024-03-02T03:41:59;36.92;;;21.02;;
27223;SDS011;14965;50.660;13.226;2024-03-02T03:44:25;40.22;;;22.15;;
27223;SDS011;14965;50.660;13.226;2024-03-02T03:46:52;37.20;;;21.10;;
27223;SDS011;14965;50.660;13.226;2024-03-02T03:49:18;42.33;;;22.10;;
27223;SDS011;14965;50.660;13.226;2024-03-02T03:51:44;39.53;;;22.42;;
27223;SDS011;14965;50.660;13.226;2024-03-02T03:54:10;36.15;;;20.23;;
27223;SDS011;14965;50.660;13.226;2024-03-02T03:56:36;37.28;;;21.77;;
27223;SDS011;14965;50.660;13.226;2024-03-02T03:59:02;41.78;;;22.25;;
27223;SDS011;14965;50.660;13.226;2024-03-02T04:01:28;38.15;;;20.73;;
27223;SDS011;14965;50.660;13.226;2024-03-02T04:03:55;36.03;;;20.40;;
27223;SDS011;14965;50.660;13.226;2024-03-02T04:06:21;37.90;;;20.83;;
27223;SDS011;14965;50.660;13.226;2024-03-02T04:08:47;41.13;;;21.60;;
27223;SDS011;14965;50.660;13.226;2024-03-02T04:11:13;39.45;;;21.88;;
27223;SDS011;14965;50.660;13.226;2024-03-02T04:13:39;41.92;;;21.60;;
27223;SDS011;14965;50.660;13.226;2024-03-02T04:16:05;35.92;;;19.83;;
27223;SDS011;14965;50.660;13.226;2024-03-02T04:18:31;40.08;;;20.25;;
27223;SDS011;14965;50.660;13.226;2024-03-02T04:20:58;45.15;;;21.20;;
27223;SDS011;14965;50.660;13.226;2024-03-02T04:23:24;38.97;;;19.88;;
27223;SDS011;14965;50.660;13.226;2024-03-02T04:25:50;37.83;;;19.85;;
27223;SDS011;14965;50.660;13.226;2024-03-02T04:28:16;37.50;;;19.85;;
27223;SDS011;14965;50.660;13.226;2024-03-02T04:30:42;36.63;;;20.10;;
27223;SDS011;14965;50.660;13.226;2024-03-02T04:33:08;38.13;;;19.35;;
27223;SDS011;14965;50.660;13.226;2024-03-02T04:35:34;41.13;;;20.75;;
27223;SDS011;14965;50.660;13.226;2024-03-02T04:38:01;34.63;;;18.98;;
27223;SDS011;14965;50.660;13.226;2024-03-02T04:40:27;36.97;;;20.30;;
27223;SDS011;14965;50.660;13.226;2024-03-02T04:42:53;41.47;;;22.17;;
27223;SDS011;14965;50.660;13.226;2024-03-02T04:45:19;41.28;;;21.40;;
27223;SDS011;14965;50.660;13.226;2024-03-02T04:47:45;40.63;;;21.13;;
27223;SDS011;14965;50.660;13.226;2024-03-02T04:50:11;40.20;;;22.38;;
27223;SDS011;14965;50.660;13.226;2024-03-02T04:52:37;39.67;;;21.88;;
27223;SDS011;14965;50.660;13.226;2024-03-02T04:55:05;39.72;;;20.23;;
27223;SDS011;14965;50.660;13.226;2024-03-02T04:57:31;39.40;;;21.95;;
27223;SDS011;14965;50.660;13.226;2024-03-02T04:59:57;40.80;;;22.25;;
27223;SDS011;14965;50.660;13.226;2024-03-02T05:02:23;47.72;;;22.67;;
27223;SDS011;14965;50.660;13.226;2024-03-02T05:04:49;42.92;;;22.45;;
27223;SDS011;14965;50.660;13.226;2024-03-02T05:07:15;43.28;;;22.98;;
27223;SDS011;14965;50.660;13.226;2024-03-02T05:09:44;42.25;;;22.55;;
27223;SDS011;14965;50.660;13.226;2024-03-02T05:12:11;41.05;;;22.27;;
27223;SDS011;14965;50.660;13.226;2024-03-02T05:14:37;40.88;;;21.75;;
27223;SDS011;14965;50.660;13.226;2024-03-02T05:17:03;44.60;;;23.60;;
27223;SDS011;14965;50.660;13.226;2024-03-02T05:19:29;42.97;;;23.10;;
27223;SDS011;14965;50.660;13.226;2024-03-02T05:21:55;46.55;;;24.88;;
27223;SDS011;14965;50.660;13.226;2024-03-02T05:24:21;45.47;;;23.65;;
27223;SDS011;14965;50.660;13.226;2024-03-02T05:26:47;41.13;;;22.67;;
27223;SDS011;14965;50.660;13.226;2024-03-02T05:29:14;44.83;;;22.52;;
27223;SDS011;14965;50.660;13.226;2024-03-02T05:31:40;44.15;;;22.38;;
27223;SDS011;14965;50.660;13.226;2024-03-02T05:34:06;46.63;;;22.02;;
27223;SDS011;14965;50.660;13.226;2024-03-02T05:36:32;40.83;;;21.10;;
27223;SDS011;14965;50.660;13.226;2024-03-02T05:38:58;43.65;;;22.27;;
27223;SDS011;14965;50.660;13.226;2024-03-02T05:41:23;39.97;;;20.55;;
27223;SDS011;14965;50.660;13.226;2024-03-02T05:43:49;39.63;;;21.50;;
27223;SDS011;14965;50.660;13.226;2024-03-02T05:46:17;37.85;;;20.45;;
27223;SDS011;14965;50.660;13.226;2024-03-02T05:48:42;41.88;;;21.38;;
27223;SDS011;14965;50.660;13.226;2024-03-02T05:51:08;39.38;;;21.83;;
27223;SDS011;14965;50.660;13.226;2024-03-02T05:53:34;44.15;;;21.80;;
27223;SDS011;14965;50.660;13.226;2024-03-02T05:56:00;40.60;;;21.52;;
27223;SDS011;14965;50.660;13.226;2024-03-02T05:58:26;36.28;;;19.88;;
27223;SDS011;14965;50.660;13.226;2024-03-02T06:00:52;42.75;;;21.30;;
27223;SDS011;14965;50.660;13.226;2024-03-02T06:03:23;41.25;;;21.45;;
27223;SDS011;14965;50.660;13.226;2024-03-02T06:05:49;38.50;;;21.05;;
27223;SDS011;14965;50.660;13.226;2024-03-02T06:08:14;42.42;;;21.70;;
27223;SDS011;14965;50.660;13.226;2024-03-02T06:10:40;45.80;;;23.45;;
27223;SDS011;14965;50.660;13.226;2024-03-02T06:13:06;45.05;;;22.63;;
27223;SDS011;14965;50.660;13.226;2024-03-02T06:15:32;41.53;;;22.52;;
27223;SDS011;14965;50.660;13.226;2024-03-02T06:17:58;49.10;;;23.83;;
27223;SDS011;14965;50.660;13.226;2024-03-02T06:20:25;45.83;;;23.10;;
27223;SDS011;14965;50.660;13.226;2024-03-02T06:22:51;42.90;;;22.67;;
27223;SDS011;14965;50.660;13.226;2024-03-02T06:25:17;45.70;;;21.95;;
27223;SDS011;14965;50.660;13.226;2024-03-02T06:27:43;44.30;;;21.88;;
27223;SDS011;14965;50.660;13.226;2024-03-02T06:30:09;44.75;;;22.35;;
27223;SDS011;14965;50.660;13.226;2024-03-02T06:32:36;44.88;;;22.77;;
27223;SDS011;14965;50.660;13.226;2024-03-02T06:35:03;46.10;;;23.42;;
27223;SDS011;14965;50.660;13.226;2024-03-02T06:37:31;47.05;;;22.58;;
27223;SDS011;14965;50.660;13.226;2024-03-02T06:39:57;44.03;;;24.02;;
27223;SDS011;14965;50.660;13.226;2024-03-02T06:42:22;45.05;;;21.95;;
27223;SDS011;14965;50.660;13.226;2024-03-02T06:44:48;45.60;;;23.20;;
27223;SDS011;14965;50.660;13.226;2024-03-02T06:47:14;48.45;;;23.42;;
27223;SDS011;14965;50.660;13.226;2024-03-02T06:49:40;44.00;;;22.75;;
27223;SDS011;14965;50.660;13.226;2024-03-02T06:52:06;42.03;;;23.08;;
27223;SDS011;14965;50.660;13.226;2024-03-02T06:54:33;51.10;;;24.77;;
27223;SDS011;14965;50.660;13.226;2024-03-02T06:56:59;41.58;;;23.05;;
27223;SDS011;14965;50.660;13.226;2024-03-02T06:59:25;42.40;;;21.52;;
27223;SDS011;14965;50.660;13.226;2024-03-02T07:01:51;50.25;;;21.42;;
27223;SDS011;14965;50.660;13.226;2024-03-02T07:04:16;42.42;;;21.95;;
27223;SDS011;14965;50.660;13.226;2024-03-02T07:06:42;47.10;;;23.63;;
27223;SDS011;14965;50.660;13.226;2024-03-02T07:09:08;42.90;;;25.08;;
27223;SDS011;14965;50.660;13.226;2024-03-02T07:11:36;53.15;;;24.90;;
27223;SDS011;14965;50.660;13.226;2024-03-02T07:14:05;41.38;;;22.75;;
27223;SDS011;14965;50.660;13.226;2024-03-02T07:16:33;44.17;;;23.08;;
27223;SDS011;14965;50.660;13.226;2024-03-02T07:19:14;44.17;;;23.40;;
27223;SDS011;14965;50.660;13.226;2024-03-02T07:21:40;47.47;;;23.92;;
27223;SDS011;14965;50.660;13.226;2024-03-02T07:24:06;48.17;;;25.92;;
27223;SDS011;14965;50.660;13.226;2024-03-02T07:26:33;50.92;;;26.88;;
27223;SDS011;14965;50.660;13.226;2024-03-02T07:29:01;50.50;;;25.88;;
27223;SDS011;14965;50.660;13.226;2024-03-02T07:31:26;47.22;;;24.17;;
27223;SDS011;14965;50.660;13.226;2024-03-02T07:33:52;44.83;;;26.95;;
27223;SDS011;14965;50.660;13.226;2024-03-02T07:36:18;44.38;;;24.00;;
27223;SDS011;14965;50.660;13.226;2024-03-02T07:38:44;51.00;;;25.33;;
27223;SDS011;14965;50.660;13.226;2024-03-02T07:41:10;41.90;;;23.63;;
27223;SDS011;14965;50.660;13.226;2024-03-02T07:43:37;47.83;;;24.20;;
27223;SDS011;14965;50.660;13.226;2024-03-02T07:46:05;57.28;;;31.23;;
27223;SDS011;14965;50.660;13.226;2024-03-02T07:48:31;121.82;;;55.97;;
27223;SDS011;14965;50.660;13.226;2024-03-02T07:50:57;69.43;;;37.35;;
27223;SDS011;14965;50.660;13.226;2024-03-02T07:53:23;64.13;;;35.28;;
27223;SDS011;14965;50.660;13.226;2024-03-02T07:55:49;60.55;;;33.50;;
27223;SDS011;14965;50.660;13.226;2024-03-02T07:58:15;46.53;;;25.50;;
27223;SDS011;14965;50.660;13.226;2024-03-02T08:00:41;36.45;;;21.80;;
27223;SDS011;14965;50.660;13.226;2024-03-02T08:03:08;45.00;;;23.80;;
27223;SDS011;14965;50.660;13.226;2024-03-02T08:05:34;45.38;;;23.85;;
27223;SDS011;14965;50.660;13.226;2024-03-02T08:08:00;47.28;;;25.52;;
27223;SDS011;14965;50.660;13.226;2024-03-02T08:10:26;42.55;;;25.15;;
27223;SDS011;14965;50.660;13.226;2024-03-02T08:12:52;39.13;;;23.17;;
27223;SDS011;14965;50.660;13.226;2024-03-02T08:15:18;37.10;;;20.90;;
27223;SDS011;14965;50.660;13.226;2024-03-02T08:17:44;36.45;;;21.42;;
27223;SDS011;14965;50.660;13.226;2024-03-02T08:20:12;41.38;;;22.10;;
27223;SDS011;14965;50.660;13.226;2024-03-02T08:22:38;35.50;;;19.63;;
27223;SDS011;14965;50.660;13.226;2024-03-02T08:25:05;35.30;;;19.50;;
27223;SDS011;14965;50.660;13.226;2024-03-02T08:27:32;36.35;;;20.40;;
27223;SDS011;14965;50.660;13.226;2024-03-02T08:29:58;36.45;;;20.75;;
27223;SDS011;14965;50.660;13.226;2024-03-02T08:32:24;39.00;;;20.95;;
27223;SDS011;14965;50.660;13.226;2024-03-02T08:34:50;36.95;;;20.65;;
27223;SDS011;14965;50.660;13.226;2024-03-02T08:37:17;34.33;;;19.20;;
27223;SDS011;14965;50.660;13.226;2024-03-02T08:39:44;38.92;;;18.88;;
27223;SDS011;14965;50.660;13.226;2024-03-02T08:42:10;36.67;;;20.60;;
27223;SDS011;14965;50.660;13.226;2024-03-02T08:44:36;31.20;;;18.55;;
27223;SDS011;14965;50.660;13.226;2024-03-02T08:47:03;28.75;;;17.38;;
27223;SDS011;14965;50.660;13.226;2024-03-02T08:49:29;31.55;;;18.35;;
27223;SDS011;14965;50.660;13.226;2024-03-02T08:51:54;30.33;;;17.02;;
27223;SDS011;14965;50.660;13.226;2024-03-02T08:54:22;29.88;;;17.33;;
27223;SDS011;14965;50.660;13.226;2024-03-02T08:56:48;29.80;;;17.60;;
27223;SDS011;14965;50.660;13.226;2024-03-02T08:59:14;31.27;;;18.88;;
27223;SDS011;14965;50.660;13.226;2024-03-02T09:01:40;32.03;;;18.55;;
27223;SDS011;14965;50.660;13.226;2024-03-02T09:04:06;27.83;;;17.73;;
27223;SDS011;14965;50.660;13.226;2024-03-02T09:06:32;29.38;;;18.15;;
27223;SDS011;14965;50.660;13.226;2024-03-02T09:08:58;29.65;;;18.00;;
27223;SDS011;14965;50.660;13.226;2024-03-02T09:11:25;28.75;;;17.77;;
27223;SDS011;14965;50.660;13.226;2024-03-02T09:13:52;31.00;;;18.73;;
27223;SDS011;14965;50.660;13.226;2024-03-02T09:16:18;36.00;;;19.77;;
27223;SDS011;14965;50.660;13.226;2024-03-02T09:18:44;31.70;;;18.20;;
27223;SDS011;14965;50.660;13.226;2024-03-02T09:21:10;32.20;;;19.50;;
27223;SDS011;14965;50.660;13.226;2024-03-02T09:23:36;31.27;;;19.23;;
27223;SDS011;14965;50.660;13.226;2024-03-02T09:26:02;37.13;;;19.42;;
27223;SDS011;14965;50.660;13.226;2024-03-02T09:28:29;31.20;;;18.75;;
27223;SDS011;14965;50.660;13.226;2024-03-02T09:30:55;31.08;;;18.83;;
27223;SDS011;14965;50.660;13.226;2024-03-02T09:33:21;34.25;;;19.35;;
27223;SDS011;14965;50.660;13.226;2024-03-02T09:35:47;27.02;;;16.40;;
27223;SDS011;14965;50.660;13.226;2024-03-02T09:38:13;34.88;;;18.50;;
27223;SDS011;14965;50.660;13.226;2024-03-02T09:40:38;29.92;;;18.25;;
27223;SDS011;14965;50.660;13.226;2024-03-02T09:43:06;28.40;;;17.60;;
27223;SDS011;14965;50.660;13.226;2024-03-02T09:45:34;27.05;;;16.75;;
27223;SDS011;14965;50.660;13.226;2024-03-02T09:48:01;23.35;;;16.02;;
27223;SDS011;14965;50.660;13.226;2024-03-02T09:50:27;27.63;;;18.02;;
27223;SDS011;14965;50.660;13.226;2024-03-02T09:52:53;30.15;;;18.73;;
27223;SDS011;14965;50.660;13.226;2024-03-02T09:55:19;29.13;;;18.05;;
27223;SDS011;14965;50.660;13.226;2024-03-02T09:57:46;30.23;;;18.77;;
27223;SDS011;14965;50.660;13.226;2024-03-02T10:00:12;26.60;;;16.83;;
27223;SDS011;14965;50.660;13.226;2024-03-02T10:02:41;25.83;;;16.17;;
27223;SDS011;14965;50.660;13.226;2024-03-02T10:05:07;32.45;;;18.30;;
27223;SDS011;14965;50.660;13.226;2024-03-02T10:07:34;27.25;;;16.35;;
27223;SDS011;14965;50.660;13.226;2024-03-02T10:10:00;28.40;;;16.58;;
27223;SDS011;14965;50.660;13.226;2024-03-02T10:12:39;26.98;;;16.25;;
27223;SDS011;14965;50.660;13.226;2024-03-02T10:15:05;29.02;;;17.25;;
27223;SDS011;14965;50.660;13.226;2024-03-02T10:17:32;31.45;;;17.90;;
27223;SDS011;14965;50.660;13.226;2024-03-02T10:20:00;27.65;;;16.55;;
27223;SDS011;14965;50.660;13.226;2024-03-02T10:22:49;30.73;;;17.80;;
27223;SDS011;14965;50.660;13.226;2024-03-02T10:25:27;32.03;;;18.73;;
27223;SDS011;14965;50.660;13.226;2024-03-02T10:27:56;31.58;;;18.90;;
27223;SDS011;14965;50.660;13.226;2024-03-02T10:30:23;32.63;;;17.48;;
27223;SDS011;14965;50.660;13.226;2024-03-02T10:32:49;36.47;;;20.17;;
27223;SDS011;14965;50.660;13.226;2024-03-02T10:35:16;40.10;;;21.90;;
27223;SDS011;14965;50.660;13.226;2024-03-02T10:37:42;38.50;;;19.83;;
27223;SDS011;14965;50.660;13.226;2024-03-02T10:40:09;41.13;;;22.33;;
27223;SDS011;14965;50.660;13.226;2024-03-02T10:42:37;40.47;;;19.38;;
27223;SDS011;14965;50.660;13.226;2024-03-02T10:45:06;33.13;;;18.07;;
27223;SDS011;14965;50.660;13.226;2024-03-02T10:47:35;46.10;;;21.65;;
27223;SDS011;14965;50.660;13.226;2024-03-02T10:50:03;40.80;;;19.63;;
27223;SDS011;14965;50.660;13.226;2024-03-02T10:52:32;33.17;;;18.33;;
27223;SDS011;14965;50.660;13.226;2024-03-02T10:54:58;32.55;;;19.35;;
27223;SDS011;14965;50.660;13.226;2024-03-02T10:57:24;35.08;;;18.15;;
27223;SDS011;14965;50.660;13.226;2024-03-02T11:00:02;38.10;;;19.30;;
27223;SDS011;14965;50.660;13.226;2024-03-02T11:02:33;40.20;;;21.95;;
27223;SDS011;14965;50.660;13.226;2024-03-02T11:05:04;37.65;;;18.02;;
27223;SDS011;14965;50.660;13.226;2024-03-02T11:07:37;36.20;;;17.75;;
27223;SDS011;14965;50.660;13.226;2024-03-02T11:10:04;35.90;;;19.00;;
27223;SDS011;14965;50.660;13.226;2024-03-02T11:12:35;40.22;;;19.50;;
27223;SDS011;14965;50.660;13.226;2024-03-02T11:15:05;35.00;;;19.35;;
27223;SDS011;14965;50.660;13.226;2024-03-02T11:17:40;32.50;;;17.15;;
27223;SDS011;14965;50.660;13.226;2024-03-02T11:20:07;35.15;;;19.38;;
27223;SDS011;14965;50.660;13.226;2024-03-02T11:22:36;37.28;;;18.95;;
27223;SDS011;14965;50.660;13.226;2024-03-02T11:25:03;41.45;;;19.88;;
27223;SDS011;14965;50.660;13.226;2024-03-02T11:33:22;43.78;;;21.30;;
27223;SDS011;14965;50.660;13.226;2024-03-02T11:35:50;40.95;;;20.63;;
27223;SDS011;14965;50.660;13.226;2024-03-02T11:38:17;38.58;;;19.55;;
27223;SDS011;14965;50.660;13.226;2024-03-02T11:40:44;38.03;;;18.95;;
27223;SDS011;14965;50.660;13.226;2024-03-02T11:43:10;31.40;;;18.80;;
27223;SDS011;14965;50.660;13.226;2024-03-02T11:45:37;33.38;;;17.83;;
27223;SDS011;14965;50.660;13.226;2024-03-02T11:48:04;29.65;;;16.17;;
27223;SDS011;14965;50.660;13.226;2024-03-02T11:50:34;30.60;;;14.57;;
27223;SDS011;14965;50.660;13.226;2024-03-02T11:53:05;28.73;;;14.65;;
27223;SDS011;14965;50.660;13.226;2024-03-02T11:55:33;23.50;;;12.85;;
27223;SDS011;14965;50.660;13.226;2024-03-02T11:58:01;27.45;;;12.30;;
27223;SDS011;14965;50.660;13.226;2024-03-02T12:00:28;28.80;;;11.75;;
27223;SDS011;14965;50.660;13.226;2024-03-02T12:02:59;23.42;;;12.63;;
27223;SDS011;14965;50.660;13.226;2024-03-02T12:05:26;27.75;;;13.55;;
27223;SDS011;14965;50.660;13.226;2024-03-02T12:07:55;31.90;;;15.65;;
27223;SDS011;14965;50.660;13.226;2024-03-02T12:10:22;31.33;;;16.10;;
27223;SDS011;14965;50.660;13.226;2024-03-02T12:12:49;31.38;;;16.25;;
27223;SDS011;14965;50.660;13.226;2024-03-02T12:15:22;37.45;;;17.25;;
27223;SDS011;14965;50.660;13.226;2024-03-02T12:17:52;36.92;;;17.08;;
27223;SDS011;14965;50.660;13.226;2024-03-02T12:20:19;43.10;;;19.05;;
27223;SDS011;14965;50.660;13.226;2024-03-02T12:22:45;39.92;;;20.02;;
27223;SDS011;14965;50.660;13.226;2024-03-02T12:25:11;39.08;;;19.20;;
27223;SDS011;14965;50.660;13.226;2024-03-02T12:27:38;36.97;;;17.25;;
27223;SDS011;14965;50.660;13.226;2024-03-02T12:30:06;45.78;;;19.70;;
27223;SDS011;14965;50.660;13.226;2024-03-02T12:32:33;41.88;;;20.75;;
27223;SDS011;14965;50.660;13.226;2024-03-02T12:35:00;45.83;;;21.15;;
27223;SDS011;14965;50.660;13.226;2024-03-02T12:37:25;45.10;;;23.20;;
27223;SDS011;14965;50.660;13.226;2024-03-02T12:39:52;48.95;;;24.13;;
27223;SDS011;14965;50.660;13.226;2024-03-02T12:42:18;52.97;;;25.20;;
27223;SDS011;14965;50.660;13.226;2024-03-02T12:44:44;53.45;;;25.50;;
27223;SDS011;14965;50.660;13.226;2024-03-02T12:47:11;49.13;;;26.23;;
27223;SDS011;14965;50.660;13.226;2024-03-02T12:49:37;57.75;;;26.65;;
27223;SDS011;14965;50.660;13.226;2024-03-02T12:52:05;50.50;;;26.60;;
27223;SDS011;14965;50.660;13.226;2024-03-02T12:54:31;56.28;;;27.70;;
27223;SDS011;14965;50.660;13.226;2024-03-02T12:56:58;59.70;;;29.15;;
27223;SDS011;14965;50.660;13.226;2024-03-02T12:59:24;60.03;;;29.23;;
27223;SDS011;14965;50.660;13.226;2024-03-02T13:01:50;57.42;;;29.77;;
27223;SDS011;14965;50.660;13.226;2024-03-02T13:04:22;56.17;;;28.45;;
27223;SDS011;14965;50.660;13.226;2024-03-02T13:06:49;53.67;;;27.23;;
27223;SDS011;14965;50.660;13.226;2024-03-02T13:09:16;55.45;;;27.75;;
27223;SDS011;14965;50.660;13.226;2024-03-02T13:11:43;53.90;;;27.30;;
27223;SDS011;14965;50.660;13.226;2024-03-02T13:14:10;52.50;;;26.40;;
27223;SDS011;14965;50.660;13.226;2024-03-02T13:16:38;50.97;;;25.83;;
27223;SDS011;14965;50.660;13.226;2024-03-02T13:19:06;56.10;;;26.48;;
27223;SDS011;14965;50.660;13.226;2024-03-02T13:21:34;50.00;;;25.80;;
27223;SDS011;14965;50.660;13.226;2024-03-02T13:24:00;48.08;;;26.38;;
27223;SDS011;14965;50.660;13.226;2024-03-02T13:26:26;53.20;;;27.25;;
27223;SDS011;14965;50.660;13.226;2024-03-02T13:28:52;49.20;;;25.98;;
27223;SDS011;14965;50.660;13.226;2024-03-02T13:31:19;50.45;;;25.90;;
27223;SDS011;14965;50.660;13.226;2024-03-02T13:33:45;54.95;;;27.60;;
27223;SDS011;14965;50.660;13.226;2024-03-02T13:36:11;53.63;;;28.70;;
27223;SDS011;14965;50.660;13.226;2024-03-02T13:38:38;57.00;;;27.38;;
27223;SDS011;14965;50.660;13.226;2024-03-02T13:41:04;55.47;;;27.38;;
27223;SDS011;14965;50.660;13.226;2024-03-02T13:43:30;49.17;;;25.15;;
27223;SDS011;14965;50.660;13.226;2024-03-02T13:45:57;45.92;;;24.80;;
27223;SDS011;14965;50.660;13.226;2024-03-02T13:48:23;53.90;;;26.17;;
27223;SDS011;14965;50.660;13.226;2024-03-02T13:50:49;47.30;;;25.30;;
27223;SDS011;14965;50.660;13.226;2024-03-02T13:53:14;53.28;;;26.45;;
27223;SDS011;14965;50.660;13.226;2024-03-02T13:55:42;49.28;;;26.08;;
27223;SDS011;14965;50.660;13.226;2024-03-02T13:58:08;41.80;;;21.88;;
27223;SDS011;14965;50.660;13.226;2024-03-02T14:00:35;41.10;;;21.25;;
27223;SDS011;14965;50.660;13.226;2024-03-02T14:03:01;40.53;;;21.05;;
27223;SDS011;14965;50.660;13.226;2024-03-02T14:05:28;38.05;;;21.58;;
27223;SDS011;14965;50.660;13.226;2024-03-02T14:07:54;46.83;;;23.27;;
27223;SDS011;14965;50.660;13.226;2024-03-02T14:10:20;40.40;;;21.52;;
27223;SDS011;14965;50.660;13.226;2024-03-02T14:12:47;48.72;;;23.95;;